Time;durP1;ratioP1;P1;durP2;ratioP2;P2;SDS_P1;SDS_P2;PMS_P1;PMS_P2;Temp;Humidity;BMP_temperature;BMP_pressure;BME280_temperature;BME280_humidity;BME280_pressure;Samples;Min_cycle;Max_cycle;Signal;HPM_P1;HPM_P2
2021/12/07 00:00:31;;;;;;;4.88;4.47;;;;;;;19.66;45.83;100304.75;4190926;28;20032;-59
2021/12/07 00:02:32;;;;;;;4.72;4.20;;;;;;;19.71;46.04;100301.09;4192990;28;20036;-61
2021/12/07 00:04:34;;;;;;;4.35;3.95;;;;;;;19.62;45.87;100289.78;4194401;28;20036;-60
2021/12/07 00:06:36;;;;;;;4.55;3.80;;;;;;;19.70;45.71;100294.72;4201983;28;20049;-59
2021/12/07 00:08:41;;;;;;;4.63;4.20;;;;;;;19.70;45.97;100296.66;4180227;28;20029;-59
2021/12/07 00:10:43;;;;;;;4.30;3.90;;;;;;;19.74;45.72;100283.84;4180104;28;20458;-59
2021/12/07 00:12:46;;;;;;;4.43;4.03;;;;;;;19.71;45.64;100274.16;4179780;28;20402;-60
2021/12/07 00:14:52;;;;;;;4.25;3.85;;;;;;;19.71;45.62;100263.06;4194615;28;20082;-61
2021/12/07 00:16:55;;;;;;;4.32;3.88;;;;;;;19.69;46.00;100248.63;4194094;28;20437;-59
2021/12/07 00:18:57;;;;;;;4.25;3.85;;;;;;;19.70;46.00;100249.47;4192108;28;20091;-60
2021/12/07 00:21:00;;;;;;;4.38;3.97;;;;;;;19.74;45.73;100256.91;4180096;28;20099;-60
2021/12/07 00:23:06;;;;;;;5.63;4.43;;;;;;;19.70;45.86;100261.41;4195206;28;20036;-59
2021/12/07 00:25:09;;;;;;;4.97;4.00;;;;;;;19.74;45.96;100273.56;4186227;28;20103;-60
2021/12/07 00:27:10;;;;;;;4.38;3.97;;;;;;;19.71;45.99;100257.50;4190955;28;20557;-61
2021/12/07 00:29:13;;;;;;;4.57;4.18;;;;;;;19.75;45.51;100266.94;4194412;28;20438;-59
2021/12/07 00:31:24;;;;;;;4.60;4.15;;;;;;;19.62;45.79;100248.16;4184672;28;20045;-62
2021/12/07 00:35:35;;;;;;;4.80;4.35;;;;;;;19.77;45.82;100272.19;4197061;28;20017;-59
2021/12/07 00:37:39;;;;;;;4.43;4.00;;;;;;;19.77;45.60;100300.75;4194972;28;20477;-59
2021/12/07 00:39:40;;;;;;;5.03;4.63;;;;;;;19.76;45.59;100334.38;4196453;28;20090;-59
2021/12/07 00:41:42;;;;;;;5.70;4.72;;;;;;;19.78;45.59;100413.47;4198117;28;20040;-59
2021/12/07 00:43:46;;;;;;;5.45;4.50;;;;;;;19.78;45.92;100452.34;4194946;28;20442;-61
2021/12/07 00:45:49;;;;;;;4.75;4.35;;;;;;;19.72;45.64;100425.72;4195206;28;20036;-62
2021/12/07 00:47:53;;;;;;;4.85;4.35;;;;;;;19.81;46.08;100445.41;4194057;28;20518;-60
2021/12/07 00:49:54;;;;;;;5.25;4.75;;;;;;;19.79;46.20;100476.22;4195485;28;20105;-61
2021/12/07 00:51:55;;;;;;;6.15;5.40;;;;;;;19.81;46.04;100489.81;4193305;28;20030;-60
2021/12/07 00:53:57;;;;;;;100.55;11.10;;;;;;;19.73;45.96;100494.00;4195374;28;20040;-60
2021/12/07 00:56:01;;;;;;;13.50;6.30;;;;;;;19.78;46.08;100540.34;4195962;28;20028;-60
2021/12/07 00:58:12;;;;;;;8.05;4.82;;;;;;;19.85;46.06;100546.44;4195756;28;20099;-58
2021/12/07 01:00:16;;;;;;;9.77;4.80;;;;;;;19.78;45.60;100549.50;4193873;28;20465;-60
2021/12/07 01:02:18;;;;;;;7.38;4.65;;;;;;;19.90;45.55;100587.25;4191793;28;20020;-60
2021/12/07 01:04:19;;;;;;;10.40;4.47;;;;;;;19.89;45.54;100602.25;4185951;28;20111;-60
2021/12/07 01:25:00;;;;;;;5.35;4.80;;;;;;;19.94;45.95;100632.78;4182391;28;20087;-60
2021/12/07 01:27:03;;;;;;;6.65;5.97;;;;;;;19.93;45.63;100647.75;4182255;28;20041;-59
2021/12/07 01:29:05;;;;;;;6.45;5.50;;;;;;;19.95;45.55;100665.00;4182270;28;20037;-59
2021/12/07 01:33:29;;;;;;;6.45;5.40;;;;;;;19.95;45.96;100678.88;4184063;28;20029;-60
2021/12/07 01:38:20;;;;;;;6.70;5.20;;;;;;;19.93;46.00;100714.41;4191940;28;20037;-61
2021/12/07 01:47:45;;;;;;;6.68;5.63;;;;;;;19.96;45.51;100755.53;4188678;28;20029;-60
2021/12/07 01:52:06;;;;;;;6.72;5.53;;;;;;;19.98;45.46;100756.94;4195261;28;20141;-60
2021/12/07 02:01:10;;;;;;;8.55;6.00;;;;;;;20.00;45.47;100781.63;4193690;28;20066;-61
2021/12/07 02:03:15;;;;;;;8.43;6.00;;;;;;;20.00;45.59;100785.25;4182607;28;20095;-62
2021/12/07 02:05:16;;;;;;;7.55;5.72;;;;;;;20.01;45.90;100791.63;4194166;28;21985;-59
2021/12/07 02:07:18;;;;;;;6.45;5.85;;;;;;;20.00;45.87;100787.19;4186978;28;20033;-60
2021/12/07 02:09:20;;;;;;;6.72;5.80;;;;;;;19.99;45.48;100793.84;4182069;28;20071;-60
2021/12/07 02:11:21;;;;;;;7.97;6.13;;;;;;;19.94;45.43;100793.88;4182219;28;20450;-59
2021/12/07 02:15:45;;;;;;;9.60;5.95;;;;;;;19.91;45.63;100784.13;4178556;28;20098;-60
2021/12/07 02:17:48;;;;;;;7.25;5.70;;;;;;;19.99;45.69;100821.63;4193986;28;20036;-60
2021/12/07 02:19:49;;;;;;;7.80;6.13;;;;;;;20.00;45.93;100831.63;4197639;28;20456;-60
2021/12/07 02:21:59;;;;;;;8.60;6.03;;;;;;;19.99;45.90;100836.34;4197164;28;20471;-61
2021/12/07 02:24:00;;;;;;;9.00;6.57;;;;;;;19.99;45.82;100850.25;4181417;28;20111;-60
2021/12/07 02:26:02;;;;;;;8.52;5.90;;;;;;;20.00;45.67;100859.41;4181510;28;20357;-59
2021/12/07 02:28:11;;;;;;;8.07;6.20;;;;;;;20.00;45.58;100864.97;4181076;28;20040;-61
2021/12/07 02:30:16;;;;;;;9.55;6.35;;;;;;;19.99;45.53;100875.25;4183127;28;20547;-60
2021/12/07 02:32:17;;;;;;;8.27;6.65;;;;;;;19.93;45.68;100875.50;4182502;28;20032;-61
2021/12/07 02:34:20;;;;;;;7.55;6.28;;;;;;;19.84;45.72;100866.03;4190322;28;20033;-61
2021/12/07 02:36:22;;;;;;;6.95;6.18;;;;;;;20.01;45.67;100897.16;4184381;28;20427;-62
2021/12/07 02:38:24;;;;;;;9.27;6.32;;;;;;;19.96;45.67;100911.06;4192271;28;20094;-60
2021/12/07 02:40:25;;;;;;;7.88;6.13;;;;;;;20.00;45.69;100931.63;4198042;28;20102;-61
2021/12/07 02:42:27;;;;;;;7.95;6.78;;;;;;;20.00;46.03;100942.72;4186260;28;20047;-60
2021/12/07 02:44:29;;;;;;;7.22;6.35;;;;;;;20.00;45.99;100956.63;4197615;28;20530;-61
2021/12/07 02:46:30;;;;;;;7.80;6.60;;;;;;;20.01;46.07;100977.72;4180287;28;20044;-61
2021/12/07 02:48:32;;;;;;;9.70;6.03;;;;;;;19.95;45.82;100968.53;4184649;28;20056;-59
2021/12/07 02:50:34;;;;;;;7.90;6.43;;;;;;;20.02;45.83;100980.25;4193698;28;20562;-61
2021/12/07 02:52:38;;;;;;;9.63;5.78;;;;;;;20.01;45.99;100983.28;4186192;28;20032;-61
2021/12/07 02:54:44;;;;;;;6.93;6.22;;;;;;;20.00;45.77;100989.94;4185609;28;20091;-62
2021/12/07 02:56:52;;;;;;;10.85;6.40;;;;;;;19.84;45.81;100985.44;4185199;28;20041;-63
2021/12/07 02:59:00;;;;;;;8.02;6.15;;;;;;;19.84;45.79;100993.78;4187314;28;20107;-62
2021/12/07 03:01:10;;;;;;;8.40;6.00;;;;;;;20.01;45.77;101033.28;4186359;28;20553;-61
2021/12/07 03:03:13;;;;;;;7.47;6.00;;;;;;;20.01;45.84;101042.44;4186815;28;20041;-60
2021/12/07 03:05:40;;;;;;;8.65;6.25;;;;;;;19.98;46.07;101039.41;4196436;28;20098;-61
2021/12/07 03:08:06;;;;;;;7.57;6.10;;;;;;;19.97;46.02;101043.25;4187115;28;20086;-62
2021/12/07 03:26:26;;;;;;;8.63;5.75;;;;;;;19.97;46.02;101118.25;4185432;28;20094;-61
2021/12/07 03:28:30;;;;;;;8.05;5.80;;;;;;;19.85;46.34;101098.22;4180501;28;20049;-60
2021/12/07 03:30:31;;;;;;;7.63;5.95;;;;;;;20.00;46.48;101134.38;4180457;28;20075;-60
2021/12/07 03:32:33;;;;;;;7.95;5.90;;;;;;;20.00;46.21;101151.06;4180469;28;20426;-61
2021/12/07 03:34:34;;;;;;;6.95;5.60;;;;;;;19.91;46.01;101172.94;4180458;28;20049;-60
2021/12/07 03:36:36;;;;;;;9.35;6.05;;;;;;;20.00;46.25;101184.38;4180554;28;20427;-59
2021/12/07 03:38:38;;;;;;;6.63;5.85;;;;;;;19.79;46.38;101159.28;4195970;28;20094;-61
2021/12/07 03:40:40;;;;;;;8.38;6.00;;;;;;;19.98;46.51;101197.72;4188758;28;20052;-60
2021/12/07 03:42:42;;;;;;;7.97;5.45;;;;;;;19.99;46.72;101213.28;4182022;28;20037;-57
2021/12/07 03:44:43;;;;;;;6.50;5.63;;;;;;;19.98;46.19;101219.94;4186450;28;20430;-61
2021/12/07 03:46:45;;;;;;;8.55;5.70;;;;;;;19.98;46.72;101228.28;4179740;28;20044;-60
2021/12/07 03:48:47;;;;;;;8.55;6.05;;;;;;;19.97;46.84;101232.13;4180419;28;20550;-60
2021/12/07 03:50:48;;;;;;;9.50;6.25;;;;;;;19.98;46.67;101245.78;4179878;28;20037;-60
2021/12/07 03:52:50;;;;;;;7.95;5.43;;;;;;;19.98;46.73;101261.59;4183417;28;20045;-60
2021/12/07 03:54:52;;;;;;;8.45;6.57;;;;;;;19.98;46.86;101259.66;4190447;28;20037;-59
2021/12/07 03:56:53;;;;;;;8.57;5.68;;;;;;;19.84;46.75;101243.69;4180290;28;20437;-61
2021/12/07 03:58:55;;;;;;;6.68;5.55;;;;;;;19.98;47.02;101283.84;4183102;28;20041;-59
2021/12/07 04:00:59;;;;;;;14.10;5.45;;;;;;;19.98;47.17;101293.00;4183693;28;20086;-60
2021/12/07 04:03:07;;;;;;;8.77;5.53;;;;;;;19.94;47.14;101291.03;4192962;28;20090;-62
2021/12/07 04:05:14;;;;;;;9.70;5.80;;;;;;;19.99;47.24;101303.00;4183366;28;20037;-59
2021/12/07 04:07:15;;;;;;;8.25;5.15;;;;;;;19.99;46.74;101307.72;4189216;28;20451;-59
2021/12/07 04:09:16;;;;;;;8.23;5.45;;;;;;;19.97;47.30;101309.91;4186773;28;20071;-59
2021/12/07 04:11:18;;;;;;;9.63;5.50;;;;;;;19.88;47.10;101304.00;4182149;28;20431;-60
2021/12/07 04:13:20;;;;;;;8.35;5.88;;;;;;;19.98;47.66;101333.84;4190442;28;20028;-60
2021/12/07 04:15:21;;;;;;;8.48;5.65;;;;;;;19.99;47.89;101335.50;4198579;28;20105;-58
2021/12/07 04:17:23;;;;;;;6.90;5.78;;;;;;;19.91;48.17;101336.81;4197497;28;20036;-60
2021/12/07 04:19:24;;;;;;;13.20;5.65;;;;;;;19.99;49.10;101354.94;4194861;28;20094;-59
2021/12/07 04:21:26;;;;;;;7.50;4.75;;;;;;;19.98;49.58;101353.28;4195509;28;20036;-60
2021/12/07 04:23:28;;;;;;;5.93;5.32;;;;;;;20.01;49.66;101352.72;4186531;28;20045;-60
2021/12/07 04:25:29;;;;;;;7.28;5.70;;;;;;;20.01;49.77;101366.63;4184276;28;20525;-60
2021/12/07 04:27:37;;;;;;;7.43;5.65;;;;;;;19.99;49.96;101375.22;4183753;28;20048;-60
2021/12/07 04:29:39;;;;;;;9.77;5.40;;;;;;;20.00;50.35;101381.63;4183831;28;20056;-59
2021/12/07 04:31:40;;;;;;;7.65;5.47;;;;;;;20.01;50.08;101386.06;4183988;28;20040;-60
2021/12/07 04:33:42;;;;;;;6.55;5.20;;;;;;;20.00;50.13;101390.78;4184505;28;20467;-58
2021/12/07 04:35:46;;;;;;;7.10;5.45;;;;;;;19.96;50.53;101400.75;4183872;28;20257;-59
2021/12/07 04:37:48;;;;;;;8.23;5.50;;;;;;;19.98;50.50;101401.34;4183442;28;20542;-62
2021/12/07 04:39:50;;;;;;;7.30;5.38;;;;;;;19.99;50.18;101410.50;4185736;28;20100;-60
2021/12/07 04:41:52;;;;;;;7.25;5.28;;;;;;;20.00;50.66;101417.72;4196589;28;20098;-60
2021/12/07 04:43:54;;;;;;;7.10;5.35;;;;;;;19.98;50.47;101408.84;4193581;28;20036;-59
2021/12/07 04:46:05;;;;;;;6.45;5.13;;;;;;;19.85;50.30;101396.19;4183645;28;20040;-59
2021/12/07 04:59:21;;;;;;;7.10;4.88;;;;;;;19.95;50.33;101437.13;4185305;28;20059;-60
2021/12/07 05:01:24;;;;;;;6.50;4.88;;;;;;;19.75;50.14;101419.16;4183538;28;20029;-59
2021/12/07 05:03:28;;;;;;;7.07;4.90;;;;;;;19.94;50.18;101454.91;4183715;28;20484;-60
2021/12/07 05:05:36;;;;;;;6.05;4.88;;;;;;;19.87;50.33;101460.66;4183245;28;20102;-59
2021/12/07 05:07:42;;;;;;;8.00;4.88;;;;;;;19.94;49.77;101466.00;4182960;28;20040;-61
2021/12/07 05:34:41;;;;;;;5.13;4.30;;;;;;;19.88;49.10;101487.31;4182448;28;20086;-60
2021/12/07 05:39:03;;;;;;;5.38;4.13;;;;;;;19.84;49.07;101510.31;4182124;28;20111;-60
2021/12/07 05:41:08;;;;;;;5.65;4.50;;;;;;;19.80;48.97;101505.31;4182093;28;20049;-60
2021/12/07 05:43:09;;;;;;;;;;;;;;;19.83;48.76;101514.19;4182504;28;20045;-59
2021/12/07 05:45:22;;;;;;;5.97;4.40;;;;;;;19.89;48.80;101518.72;4182039;28;19967;-60
2021/12/07 05:47:26;;;;;;;6.65;4.53;;;;;;;19.85;48.91;101526.75;4183771;28;20049;-60
2021/12/07 05:49:28;;;;;;;9.52;4.80;;;;;;;19.86;48.49;101536.75;4182229;28;20025;-60
2021/12/07 05:51:29;;;;;;;5.60;4.55;;;;;;;19.83;48.48;101545.59;4182167;28;20094;-59
2021/12/07 05:53:31;;;;;;;4.88;4.38;;;;;;;19.80;48.47;101540.56;4187608;28;20037;-58
2021/12/07 05:55:33;;;;;;;4.35;3.88;;;;;;;19.84;48.34;101560.31;4181772;28;20045;-59
2021/12/07 05:57:34;;;;;;;5.28;4.13;;;;;;;19.83;48.61;101569.75;4181494;28;20048;-61
2021/12/07 05:59:36;;;;;;;5.10;4.28;;;;;;;19.82;48.64;101580.00;4181416;28;20045;-60
2021/12/07 06:01:41;;;;;;;5.53;4.00;;;;;;;19.81;48.55;101578.34;4188791;28;20028;-59
2021/12/07 06:03:42;;;;;;;4.38;3.97;;;;;;;19.79;48.43;101584.16;4196945;28;20580;-62
2021/12/07 06:05:44;;;;;;;5.35;4.25;;;;;;;19.78;48.16;101590.78;4186924;28;20099;-61
2021/12/07 06:07:45;;;;;;;6.47;4.70;;;;;;;19.73;48.44;101585.16;4189352;28;20090;-60
2021/12/07 06:09:46;;;;;;;5.25;4.70;;;;;;;19.78;47.96;101590.78;4181545;28;20033;-60
2021/12/07 06:11:50;;;;;;;5.05;4.30;;;;;;;19.77;47.97;101597.44;4181800;28;20067;-59
2021/12/07 06:13:52;;;;;;;4.20;3.83;;;;;;;19.76;48.04;101598.56;4181793;28;20446;-59
2021/12/07 06:15:54;;;;;;;5.82;4.32;;;;;;;19.76;48.13;101603.28;4185346;28;20091;-61
2021/12/07 06:17:55;;;;;;;5.30;4.35;;;;;;;19.74;48.27;101609.06;4191546;28;20495;-60
2021/12/07 06:19:56;;;;;;;5.28;4.50;;;;;;;19.60;47.87;101588.31;4185547;28;20538;-60
2021/12/07 06:21:58;;;;;;;5.95;4.13;;;;;;;19.75;48.14;101612.72;4182985;28;20473;-60
2021/12/07 06:23:59;;;;;;;4.43;3.90;;;;;;;19.74;48.25;101614.63;4193633;28;20049;-60
2021/12/07 06:26:02;;;;;;;6.45;4.38;;;;;;;19.73;47.87;101626.00;4190360;28;20422;-56
2021/12/07 06:28:03;;;;;;;5.47;3.78;;;;;;;19.71;47.67;101620.72;4187827;28;20122;-59
2021/12/07 06:30:06;;;;;;;5.43;3.65;;;;;;;19.71;48.02;101623.47;4181473;28;20475;-59
2021/12/07 06:32:08;;;;;;;4.47;3.53;;;;;;;19.70;47.72;101632.91;4181279;28;20103;-59
2021/12/07 06:34:10;;;;;;;4.68;3.90;;;;;;;19.69;47.74;101642.31;4181496;28;20025;-59
2021/12/07 06:36:15;;;;;;;3.53;3.22;;;;;;;19.68;47.81;101637.88;4181393;28;20143;-60
2021/12/07 06:38:18;;;;;;;4.15;3.65;;;;;;;19.68;48.00;101643.41;4181021;28;20037;-61
2021/12/07 06:40:19;;;;;;;5.40;3.67;;;;;;;19.65;47.83;101657.81;4181184;28;20541;-60
2021/12/07 06:42:21;;;;;;;5.07;4.57;;;;;;;19.49;47.70;101637.28;4181031;28;20090;-61
2021/12/07 06:44:22;;;;;;;4.50;3.85;;;;;;;19.67;47.92;101677.84;4187964;28;20098;-59
2021/12/07 06:46:24;;;;;;;4.07;3.70;;;;;;;19.54;47.62;101667.06;4181059;28;20419;-60
2021/12/07 06:48:25;;;;;;;5.13;3.47;;;;;;;19.48;47.49;101673.63;4180508;28;20098;-59
2021/12/07 06:50:27;;;;;;;4.68;3.70;;;;;;;19.66;47.83;101703.94;4181103;28;20045;-60
2021/12/07 06:52:28;;;;;;;4.38;3.45;;;;;;;19.66;47.37;101698.38;4181037;28;20037;-59
2021/12/07 06:54:30;;;;;;;3.90;3.30;;;;;;;19.66;47.45;101703.09;4180603;28;20040;-58
2021/12/07 06:56:36;;;;;;;4.43;3.58;;;;;;;19.67;47.27;101707.53;4180722;28;20033;-61
2021/12/07 06:58:38;;;;;;;5.82;3.78;;;;;;;19.63;47.52;101704.44;4180872;28;20036;-59
2021/12/07 07:00:40;;;;;;;4.32;3.10;;;;;;;19.64;47.29;101706.09;4180810;28;20099;-60
2021/12/07 07:02:41;;;;;;;5.05;3.25;;;;;;;19.60;47.48;101716.03;4180809;28;20492;-61
2021/12/07 07:04:44;;;;;;;4.28;3.20;;;;;;;19.64;47.15;101731.09;4180869;28;20033;-63
2021/12/07 07:06:46;;;;;;;5.07;4.03;;;;;;;19.63;47.23;101737.75;4180681;28;20052;-59
2021/12/07 07:08:50;;;;;;;6.32;3.40;;;;;;;19.62;47.23;101752.72;4181178;28;20041;-60
2021/12/07 07:10:51;;;;;;;3.67;3.38;;;;;;;19.62;47.33;101760.22;4180898;28;20017;-60
2021/12/07 07:12:53;;;;;;;3.38;3.08;;;;;;;19.62;47.38;101746.34;4180537;28;20044;-60
2021/12/07 07:14:57;;;;;;;5.93;3.45;;;;;;;19.60;47.46;101760.47;4180733;28;20480;-59
2021/12/07 07:16:58;;;;;;;5.87;3.40;;;;;;;19.60;47.39;101759.59;4182744;28;20534;-59
2021/12/07 07:19:00;;;;;;;4.57;3.28;;;;;;;19.60;47.20;101760.47;4192528;28;20098;-59
2021/12/07 07:21:02;;;;;;;4.28;3.08;;;;;;;19.60;47.34;101754.91;4180089;28;20041;-59
2021/12/07 07:23:05;;;;;;;4.57;3.17;;;;;;;19.57;46.89;101740.69;4180651;28;20604;-58
2021/12/07 07:25:07;;;;;;;3.20;2.90;;;;;;;19.60;46.79;101749.34;4180638;28;20108;-60
2021/12/07 07:27:09;;;;;;;3.85;3.13;;;;;;;19.60;46.80;101754.03;4180270;28;20426;-60
2021/12/07 07:29:10;;;;;;;3.67;2.80;;;;;;;19.59;47.06;101755.97;4180677;28;20033;-60
2021/12/07 07:31:13;;;;;;;4.13;2.70;;;;;;;19.59;46.90;101755.13;4187202;28;20032;-59
2021/12/07 07:33:15;;;;;;;3.03;2.63;;;;;;;19.38;47.07;101713.16;4186396;28;20052;-59
2021/12/07 07:35:17;;;;;;;4.25;3.13;;;;;;;19.55;46.79;101732.56;4180768;28;20025;-59
2021/12/07 07:37:18;;;;;;;3.28;2.83;;;;;;;19.54;46.84;101740.06;4180005;28;20037;-60
2021/12/07 07:39:22;;;;;;;4.20;3.00;;;;;;;19.53;46.86;101737.56;4179739;28;20098;-61
2021/12/07 07:41:24;;;;;;;2.92;2.50;;;;;;;19.53;46.74;101740.34;4180551;28;20083;-58
2021/12/07 07:43:26;;;;;;;4.50;2.92;;;;;;;19.42;46.73;101725.41;4180295;28;20029;-58
2021/12/07 07:45:29;;;;;;;3.25;2.50;;;;;;;19.39;46.87;101719.56;4180675;28;20037;-60
2021/12/07 07:47:31;;;;;;;4.40;2.85;;;;;;;19.43;46.76;101731.84;4180107;28;20040;-60
2021/12/07 07:49:32;;;;;;;3.08;2.60;;;;;;;19.51;46.61;101746.13;4192013;28;20442;-60
2021/12/07 07:51:35;;;;;;;3.33;3.03;;;;;;;19.48;46.90;101741.09;4185962;28;20044;-59
2021/12/07 07:53:36;;;;;;;4.18;2.47;;;;;;;19.37;46.77;101727.28;4192666;28;20044;-60
2021/12/07 07:55:42;;;;;;;3.35;2.55;;;;;;;19.48;46.78;101743.03;4184365;28;20476;-60
2021/12/07 07:57:44;;;;;;;4.32;2.55;;;;;;;19.50;46.61;101755.53;4179712;28;20049;-59
2021/12/07 07:59:45;;;;;;;4.05;3.13;;;;;;;19.51;46.81;101750.84;4179907;28;20545;-59
2021/12/07 08:01:47;;;;;;;3.22;2.80;;;;;;;19.51;46.59;101756.38;4180276;28;20094;-58
2021/12/07 08:03:48;;;;;;;3.30;2.78;;;;;;;19.50;46.61;101772.19;4182891;28;20450;-60
2021/12/07 08:05:50;;;;;;;3.13;2.63;;;;;;;19.45;46.54;101768.50;4192829;28;20044;-61
2021/12/07 08:07:51;;;;;;;2.97;2.45;;;;;;;19.48;46.40;101774.41;4183184;28;20040;-59
2021/12/07 08:09:53;;;;;;;2.92;2.58;;;;;;;19.45;46.64;101779.59;4191239;28;20119;-60
2021/12/07 08:11:54;;;;;;;3.35;2.17;;;;;;;19.29;46.54;101748.81;4180132;28;20388;-59
2021/12/07 08:13:56;;;;;;;2.72;2.40;;;;;;;19.47;46.54;101775.50;4180398;28;20033;-59
2021/12/07 08:15:57;;;;;;;4.32;2.95;;;;;;;19.41;46.34;101772.88;4180150;28;20369;-60
2021/12/07 08:17:59;;;;;;;2.75;2.50;;;;;;;19.46;46.61;101784.06;4190614;28;20045;-59
2021/12/07 08:20:01;;;;;;;3.17;2.45;;;;;;;19.45;46.49;101783.22;4183213;28;20041;-60
2021/12/07 08:22:03;;;;;;;2.83;2.22;;;;;;;19.46;46.69;101792.38;4179909;28;20037;-59
2021/12/07 08:24:05;;;;;;;4.25;2.97;;;;;;;19.44;46.73;101794.59;4179905;28;20546;-59
2021/12/07 08:26:09;;;;;;;2.42;2.22;;;;;;;19.42;46.36;101796.75;4179951;28;20036;-59
2021/12/07 08:28:13;;;;;;;2.58;2.30;;;;;;;19.36;46.37;101792.22;4179846;28;20116;-60
2021/12/07 08:30:16;;;;;;;2.20;2.00;;;;;;;19.44;46.25;101811.25;4180363;28;20041;-59
2021/12/07 08:32:20;;;;;;;2.63;1.90;;;;;;;19.41;46.28;101808.94;4194104;28;20040;-60
2021/12/07 08:34:22;;;;;;;2.72;2.35;;;;;;;19.43;46.14;101799.28;4180037;28;20051;-59
2021/12/07 08:36:23;;;;;;;2.40;2.20;;;;;;;19.40;46.13;101808.13;4180144;28;20029;-61
2021/12/07 08:38:25;;;;;;;3.30;2.10;;;;;;;19.43;46.50;101817.88;4179616;28;20036;-60
2021/12/07 08:40:29;;;;;;;3.15;2.30;;;;;;;19.41;46.17;101822.81;4180022;28;20099;-60
2021/12/07 08:42:31;;;;;;;3.17;1.88;;;;;;;19.40;46.09;101822.00;4180166;28;20025;-59
2021/12/07 08:44:32;;;;;;;2.10;1.90;;;;;;;19.39;46.26;101817.53;4182061;28;20431;-60
2021/12/07 08:46:34;;;;;;;5.55;2.63;;;;;;;19.21;46.20;101790.00;4182930;28;20094;-60
2021/12/07 08:48:36;;;;;;;2.90;1.90;;;;;;;19.33;46.35;101807.41;4183473;28;20504;-60
2021/12/07 08:50:37;;;;;;;2.40;2.20;;;;;;;19.17;46.39;101786.88;4183360;28;20040;-59
2021/12/07 08:52:39;;;;;;;2.22;1.90;;;;;;;19.35;46.34;101812.75;4183146;28;20099;-60
2021/12/07 09:01:25;;;;;;;3.83;2.03;;;;;;;19.31;46.07;101826.25;4183218;28;20431;-59
2021/12/07 09:03:27;;;;;;;2.15;1.95;;;;;;;19.29;46.33;101840.41;4182718;28;20102;-59
2021/12/07 09:05:28;;;;;;;2.92;2.33;;;;;;;19.24;46.14;101828.34;4182694;28;20091;-61
2021/12/07 09:07:30;;;;;;;2.25;1.90;;;;;;;19.31;46.32;101840.13;4182581;28;20103;-60
2021/12/07 09:09:32;;;;;;;2.33;2.00;;;;;;;19.22;46.14;101831.38;4182424;28;20041;-60
2021/12/07 09:11:34;;;;;;;2.20;2.00;;;;;;;19.27;46.22;101837.00;4186969;28;20045;-60
2021/12/07 09:13:36;;;;;;;1.70;1.60;;;;;;;19.16;46.07;101818.50;4192595;28;20306;-60
2021/12/07 09:15:39;;;;;;;2.13;1.88;;;;;;;19.29;45.92;101842.34;4182587;28;20041;-58
2021/12/07 09:17:40;;;;;;;2.20;1.73;;;;;;;19.28;46.22;101846.19;4190343;28;20122;-59
2021/12/07 09:19:42;;;;;;;3.65;2.00;;;;;;;19.26;46.09;101860.31;4188352;28;20033;-60
2021/12/07 09:21:43;;;;;;;2.13;1.75;;;;;;;19.26;45.92;101854.75;4182665;28;20041;-59
2021/12/07 09:23:45;;;;;;;2.60;1.77;;;;;;;19.26;45.88;101860.31;4182546;28;20037;-60
2021/12/07 09:25:47;;;;;;;1.98;1.67;;;;;;;19.25;45.96;101858.63;4182609;28;20076;-59
2021/12/07 09:27:48;;;;;;;3.58;2.35;;;;;;;19.24;46.04;101862.50;4182210;28;20110;-60
2021/12/07 09:29:53;;;;;;;2.60;2.00;;;;;;;19.23;45.88;101855.25;4190440;28;20028;-59
2021/12/07 09:31:56;;;;;;;2.13;1.80;;;;;;;19.24;46.14;101868.06;4198899;28;20040;-60
2021/12/07 09:33:58;;;;;;;1.95;1.75;;;;;;;19.22;46.01;101869.38;4195654;28;20045;-59
2021/12/07 09:36:06;;;;;;;2.42;1.75;;;;;;;19.21;45.95;101874.09;4193160;28;20041;-59
2021/12/07 09:38:09;;;;;;;2.38;2.03;;;;;;;19.20;45.93;101877.97;4184720;28;20056;-59
2021/12/07 09:40:14;;;;;;;2.00;1.70;;;;;;;19.19;46.37;101876.25;4194064;28;20110;-61
2021/12/07 09:42:15;;;;;;;2.38;1.90;;;;;;;19.21;45.82;101873.25;4183914;28;20111;-60
2021/12/07 09:44:17;;;;;;;2.00;1.80;;;;;;;19.15;45.91;101868.66;4182904;28;20037;-59
2021/12/07 09:46:19;;;;;;;2.90;1.77;;;;;;;19.18;45.94;101873.72;4182883;28;20438;-59
2021/12/07 09:48:21;;;;;;;1.92;1.40;;;;;;;19.07;45.91;101857.97;4196176;28;20070;-60
2021/12/07 09:50:23;;;;;;;1.95;1.60;;;;;;;19.09;45.81;101847.47;4181510;28;20037;-60
2021/12/07 09:52:25;;;;;;;1.60;1.50;;;;;;;19.17;45.78;101859.00;4182470;28;20049;-60
2021/12/07 09:54:26;;;;;;;1.83;1.70;;;;;;;19.17;46.19;101861.78;4189633;28;20537;-58
2021/12/07 09:56:29;;;;;;;1.70;1.60;;;;;;;19.13;46.16;101866.16;4192744;28;20017;-58
2021/12/07 09:58:30;;;;;;;1.60;1.50;;;;;;;19.13;45.94;101866.16;4182240;28;20546;-58
2021/12/07 10:00:33;;;;;;;1.35;1.20;;;;;;;19.13;45.93;101871.69;4185299;28;20029;-59
2021/12/07 10:02:34;;;;;;;1.70;1.50;;;;;;;19.14;46.09;101873.38;4182112;28;20037;-59
2021/12/07 10:04:36;;;;;;;2.25;1.48;;;;;;;19.14;45.69;101883.63;4191357;28;20048;-61
2021/12/07 10:06:38;;;;;;;2.05;1.60;;;;;;;19.01;45.79;101868.09;4186314;28;20102;-60
2021/12/07 10:08:40;;;;;;;1.90;1.60;;;;;;;18.98;46.02;101876.94;4195701;28;20040;-59
2021/12/07 10:10:44;;;;;;;1.65;1.30;;;;;;;19.11;45.76;101904.41;4182090;28;20178;-58
2021/12/07 10:12:46;;;;;;;1.83;1.63;;;;;;;19.14;45.98;101903.06;4183634;28;20075;-59
2021/12/07 10:14:48;;;;;;;1.90;1.70;;;;;;;19.12;45.79;101897.75;4181759;28;20049;-59
2021/12/07 10:16:52;;;;;;;1.85;1.48;;;;;;;19.03;46.00;101879.81;4181620;28;20095;-59
2021/12/07 10:18:54;;;;;;;1.77;1.50;;;;;;;18.95;45.70;101880.19;4181702;28;20098;-60
2021/12/07 10:20:59;;;;;;;1.83;1.40;;;;;;;18.93;45.78;101887.94;4181775;28;20033;-60
2021/12/07 10:23:21;;;;;;;1.60;1.50;;;;;;;19.08;45.60;101917.91;4181802;28;20110;-58
2021/12/07 10:25:27;;;;;;;1.48;1.33;;;;;;;19.06;46.01;101951.47;4173632;28;20094;-59
2021/12/07 10:27:34;;;;;;;1.60;1.50;;;;;;;19.09;45.61;101948.19;4181390;28;20040;-60
2021/12/07 10:29:35;;;;;;;1.75;1.52;;;;;;;19.06;45.86;101959.78;4181733;28;20102;-59
2021/12/07 10:31:39;;;;;;;1.50;1.40;;;;;;;19.06;45.89;101962.56;4181292;28;20099;-61
2021/12/07 10:33:58;;;;;;;1.75;1.40;;;;;;;18.99;45.99;101953.50;4181454;28;20021;-58
2021/12/07 10:36:17;;;;;;;2.03;1.55;;;;;;;19.02;45.43;101953.88;4181464;28;20094;-59
2021/12/07 10:38:21;;;;;;;1.55;1.27;;;;;;;19.04;45.83;101957.22;4187022;28;20032;-60
2021/12/07 10:40:22;;;;;;;1.40;1.30;;;;;;;19.03;45.44;101954.72;4187980;28;20095;-59
2021/12/07 10:42:27;;;;;;;1.50;1.10;;;;;;;19.03;45.26;101951.94;4181247;28;20095;-59
2021/12/07 10:44:33;;;;;;;1.10;1.10;;;;;;;18.93;45.82;101948.94;4181295;28;20539;-59
2021/12/07 10:46:50;;;;;;;1.50;1.23;;;;;;;19.02;45.84;101972.44;4181244;28;20059;-60
2021/12/07 10:49:18;;;;;;;1.10;1.00;;;;;;;19.01;45.47;101992.94;4185829;28;20028;-60
2021/12/07 10:51:19;;;;;;;1.55;1.45;;;;;;;19.01;45.79;102006.78;4190834;28;20074;-59
2021/12/07 10:53:20;;;;;;;2.47;1.45;;;;;;;18.99;45.43;102014.53;4191047;28;20144;-59
2021/12/07 10:55:26;;;;;;;1.63;1.50;;;;;;;18.94;45.84;102006.94;4195223;28;20093;-60
2021/12/07 10:57:33;;;;;;;1.52;1.30;;;;;;;18.96;45.46;102003.91;4187391;28;20098;-59
2021/12/07 10:59:35;;;;;;;1.50;1.23;;;;;;;18.93;45.49;102007.19;4185532;28;20090;-59
2021/12/07 11:01:43;;;;;;;1.27;1.10;;;;;;;18.93;45.86;102015.50;4194570;28;20045;-59
2021/12/07 11:03:44;;;;;;;1.25;1.15;;;;;;;18.94;45.63;102025.50;4182730;28;20045;-60
2021/12/07 11:05:50;;;;;;;1.23;1.13;;;;;;;18.91;45.66;102020.44;4187518;28;20066;-59
2021/12/07 11:07:56;;;;;;;1.60;1.13;;;;;;;18.92;45.65;102041.53;4193081;28;20094;-59
2021/12/07 11:10:15;;;;;;;1.40;1.27;;;;;;;18.93;45.32;102057.13;4181761;28;20123;-59
2021/12/07 11:12:19;;;;;;;1.40;1.30;;;;;;;18.91;45.45;102062.03;4193073;28;20106;-61
2021/12/07 11:14:21;;;;;;;1.47;1.23;;;;;;;18.93;45.62;102069.06;4191586;28;20441;-60
2021/12/07 11:16:23;;;;;;;1.40;1.10;;;;;;;18.92;45.21;102066.50;4195624;28;20102;-60
2021/12/07 11:18:32;;;;;;;1.45;1.00;;;;;;;18.89;45.61;102065.06;4195783;28;20041;-60